EWG173A EDDS-LICJ
Flight info
| Callsign | EWG173A |
|---|---|
| Flight time | N/A |
| Altitude | 39000 |
| Route | ROTWE5B/25 ROTWE Y126 TUBLO N850 ODINA DCT SRN DCT KALIK DCT VALMA DCT BETOT DCT RONAB DCT GIANO |
| Aircraft | A320/M-SDE3FGHIRWY/LB1 |
Departure
| Time | 2026-05-07 18:09 |
|---|---|
| Airport | Stuttgart Airport (EDDS) |
Arrival
| Time | N/A |
|---|---|
| Airport | Falcone–Borsellino Airport (LICJ) |
| Time | Latitude | Longitude | Altitude | Speed | Heading |
|---|---|---|---|---|---|
| 2026-05-07 17:40 | 48.68940 | 9.19645 | 1315 ft | 0 kts | 344° |
| 2026-05-07 17:57 | 48.68932 | 9.19649 | 1314 ft | 4 kts | 343° |
| 2026-05-07 17:57 | 48.68906 | 9.19661 | 1311 ft | 4 kts | 343° |
| 2026-05-07 17:58 | 48.68886 | 9.19671 | 1310 ft | 4 kts | 352° |
| 2026-05-07 17:58 | 48.68863 | 9.19666 | 1309 ft | 4 kts | 47° |
| 2026-05-07 17:58 | 48.68853 | 9.19634 | 1309 ft | 4 kts | 74° |
| 2026-05-07 17:58 | 48.68851 | 9.19624 | 1309 ft | 1 kts | 74° |
| 2026-05-07 18:00 | 48.68852 | 9.19629 | 1309 ft | 3 kts | 74° |
| 2026-05-07 18:00 | 48.68866 | 9.19695 | 1308 ft | 10 kts | 71° |
| 2026-05-07 18:01 | 48.68889 | 9.19818 | 1304 ft | 14 kts | 81° |
| 2026-05-07 18:01 | 48.68824 | 9.19914 | 1297 ft | 15 kts | 132° |
| 2026-05-07 18:01 | 48.68847 | 9.20074 | 1294 ft | 18 kts | 74° |
| 2026-05-07 18:01 | 48.68883 | 9.20269 | 1289 ft | 21 kts | 73° |
| 2026-05-07 18:02 | 48.68980 | 9.20778 | 1277 ft | 29 kts | 74° |
| 2026-05-07 18:02 | 48.69033 | 9.21058 | 1271 ft | 26 kts | 74° |
| 2026-05-07 18:02 | 48.69083 | 9.21322 | 1263 ft | 28 kts | 74° |
| 2026-05-07 18:03 | 48.69138 | 9.21610 | 1260 ft | 28 kts | 74° |
| 2026-05-07 18:03 | 48.69192 | 9.21893 | 1260 ft | 29 kts | 74° |
| 2026-05-07 18:03 | 48.69249 | 9.22197 | 1251 ft | 31 kts | 74° |
| 2026-05-07 18:03 | 48.69306 | 9.22500 | 1236 ft | 31 kts | 74° |
| 2026-05-07 18:04 | 48.69366 | 9.22815 | 1229 ft | 31 kts | 74° |
| 2026-05-07 18:04 | 48.69419 | 9.23098 | 1223 ft | 29 kts | 73° |
| 2026-05-07 18:04 | 48.69475 | 9.23388 | 1218 ft | 29 kts | 74° |
| 2026-05-07 18:04 | 48.69531 | 9.23688 | 1211 ft | 30 kts | 74° |
| 2026-05-07 18:05 | 48.69581 | 9.23951 | 1206 ft | 25 kts | 74° |
| 2026-05-07 18:05 | 48.69601 | 9.24182 | 1199 ft | 15 kts | 126° |
| 2026-05-07 18:05 | 48.69536 | 9.24303 | 1192 ft | 13 kts | 160° |
| 2026-05-07 18:05 | 48.69450 | 9.24336 | 1190 ft | 12 kts | 166° |
| 2026-05-07 18:06 | 48.69387 | 9.24311 | 1191 ft | 8 kts | 245° |
| 2026-05-07 18:06 | 48.69383 | 9.24283 | 1192 ft | 0 kts | 256° |
| 2026-05-07 18:08 | 48.69362 | 9.24167 | 1194 ft | 37 kts | 255° |
| 2026-05-07 18:09 | 48.69221 | 9.23426 | 1209 ft | 106 kts | 254° |
| 2026-05-07 18:09 | 48.68967 | 9.22085 | 1248 ft | 156 kts | 255° |
| 2026-05-07 18:09 | 48.68678 | 9.20479 | 1866 ft | 157 kts | 257° |
| 2026-05-07 18:09 | 48.68388 | 9.18876 | 2609 ft | 161 kts | 257° |
| 2026-05-07 18:10 | 48.68071 | 9.17145 | 2998 ft | 181 kts | 256° |
| 2026-05-07 18:10 | 48.67714 | 9.15221 | 3290 ft | 204 kts | 256° |
| 2026-05-07 18:10 | 48.67302 | 9.13033 | 3578 ft | 229 kts | 256° |
| 2026-05-07 18:10 | 48.66840 | 9.10595 | 3996 ft | 253 kts | 255° |
| 2026-05-07 18:11 | 48.66337 | 9.07973 | 4715 ft | 263 kts | 255° |
| 2026-05-07 18:11 | 48.65996 | 9.06207 | 5322 ft | 265 kts | 255° |
| 2026-05-07 18:11 | 48.65300 | 9.02624 | 6592 ft | 267 kts | 254° |
| 2026-05-07 18:11 | 48.64772 | 8.99924 | 7445 ft | 269 kts | 253° |
| 2026-05-07 18:12 | 48.64237 | 8.97200 | 8325 ft | 271 kts | 253° |
| 2026-05-07 18:12 | 48.63587 | 8.94558 | 9182 ft | 274 kts | 240° |
| 2026-05-07 18:12 | 48.62331 | 8.92396 | 10023 ft | 278 kts | 219° |
| 2026-05-07 18:12 | 48.60759 | 8.90605 | 10534 ft | 293 kts | 218° |
| 2026-05-07 18:13 | 48.59078 | 8.88667 | 10754 ft | 316 kts | 221° |
| 2026-05-07 18:13 | 48.57376 | 8.86380 | 10929 ft | 339 kts | 223° |
| 2026-05-07 18:13 | 48.55565 | 8.83925 | 11061 ft | 361 kts | 223° |
| 2026-05-07 18:13 | 48.53660 | 8.81341 | 11405 ft | 374 kts | 223° |
| 2026-05-07 18:14 | 48.51712 | 8.78700 | 11987 ft | 379 kts | 223° |
| 2026-05-07 18:14 | 48.49743 | 8.76027 | 12598 ft | 383 kts | 223° |
| 2026-05-07 18:14 | 48.47749 | 8.73323 | 13204 ft | 388 kts | 223° |
| 2026-05-07 18:14 | 48.45733 | 8.70595 | 13798 ft | 392 kts | 223° |
| 2026-05-07 18:15 | 48.43692 | 8.67839 | 14321 ft | 395 kts | 223° |
| 2026-05-07 18:15 | 48.41637 | 8.65066 | 14886 ft | 398 kts | 223° |
| 2026-05-07 18:15 | 48.39594 | 8.62312 | 15433 ft | 401 kts | 223° |
| 2026-05-07 18:15 | 48.37521 | 8.59523 | 15982 ft | 402 kts | 223° |
| 2026-05-07 18:16 | 48.35422 | 8.56705 | 16535 ft | 404 kts | 223° |
| 2026-05-07 18:16 | 48.33319 | 8.53880 | 17058 ft | 406 kts | 223° |
| 2026-05-07 18:16 | 48.31206 | 8.51045 | 17581 ft | 408 kts | 223° |
| 2026-05-07 18:16 | 48.29080 | 8.48200 | 18099 ft | 411 kts | 223° |
| 2026-05-07 18:17 | 48.26939 | 8.45342 | 18569 ft | 413 kts | 223° |
| 2026-05-07 18:17 | 48.24784 | 8.42470 | 19000 ft | 415 kts | 223° |
| 2026-05-07 18:17 | 48.22614 | 8.39583 | 19420 ft | 418 kts | 222° |
| 2026-05-07 18:17 | 48.20282 | 8.36956 | 19818 ft | 422 kts | 213° |
| 2026-05-07 18:18 | 48.17671 | 8.35041 | 20209 ft | 427 kts | 202° |
| 2026-05-07 18:18 | 48.14793 | 8.33883 | 20584 ft | 432 kts | 191° |
| 2026-05-07 18:18 | 48.11782 | 8.33576 | 20947 ft | 437 kts | 180° |
| 2026-05-07 18:18 | 48.08744 | 8.34112 | 21308 ft | 442 kts | 173° |
| 2026-05-07 18:19 | 48.05700 | 8.34860 | 21683 ft | 444 kts | 173° |
| 2026-05-07 18:19 | 48.02642 | 8.35607 | 22031 ft | 447 kts | 173° |
| 2026-05-07 18:19 | 47.99567 | 8.36351 | 22391 ft | 449 kts | 173° |
| 2026-05-07 18:19 | 47.96474 | 8.37099 | 22747 ft | 452 kts | 173° |
| 2026-05-07 18:20 | 47.93406 | 8.37843 | 23078 ft | 454 kts | 173° |
| 2026-05-07 18:20 | 47.90280 | 8.38600 | 23380 ft | 457 kts | 173° |
| 2026-05-07 18:20 | 47.87134 | 8.39356 | 23677 ft | 459 kts | 173° |
| 2026-05-07 18:20 | 47.83973 | 8.40111 | 23935 ft | 461 kts | 173° |
| 2026-05-07 18:21 | 47.80803 | 8.40871 | 24028 ft | 462 kts | 173° |
| 2026-05-07 18:21 | 47.77629 | 8.41631 | 24058 ft | 462 kts | 173° |
| 2026-05-07 18:21 | 47.74459 | 8.42389 | 24055 ft | 462 kts | 173° |
| 2026-05-07 18:21 | 47.71333 | 8.43132 | 24042 ft | 461 kts | 173° |
| 2026-05-07 18:22 | 47.68165 | 8.43869 | 24038 ft | 460 kts | 174° |
| 2026-05-07 18:22 | 47.66023 | 8.44294 | 24039 ft | 460 kts | 175° |
| 2026-05-07 18:22 | 47.61804 | 8.44954 | 24247 ft | 462 kts | 177° |
| 2026-05-07 18:22 | 47.58599 | 8.45364 | 24528 ft | 463 kts | 178° |
| 2026-05-07 18:23 | 47.55380 | 8.45757 | 24789 ft | 465 kts | 178° |
| 2026-05-07 18:23 | 47.52150 | 8.46169 | 25055 ft | 467 kts | 177° |
| 2026-05-07 18:23 | 47.48918 | 8.46612 | 25413 ft | 466 kts | 177° |
| 2026-05-07 18:23 | 47.45695 | 8.47080 | 25787 ft | 465 kts | 177° |
| 2026-05-07 18:24 | 47.42523 | 8.47556 | 26161 ft | 464 kts | 177° |
| 2026-05-07 18:24 | 47.39309 | 8.48042 | 26538 ft | 464 kts | 177° |
| 2026-05-07 18:24 | 47.36100 | 8.48521 | 26916 ft | 463 kts | 177° |
| 2026-05-07 18:24 | 47.32892 | 8.48996 | 27297 ft | 463 kts | 177° |
| 2026-05-07 18:25 | 47.29690 | 8.49467 | 27693 ft | 462 kts | 177° |
| 2026-05-07 18:25 | 47.26492 | 8.49935 | 28086 ft | 462 kts | 178° |
| 2026-05-07 18:25 | 47.24378 | 8.50243 | 28344 ft | 461 kts | 178° |